aviador You're here:

RJOH Decoded Metar

MIHO in JAPAN
Report Time2018-05-21 20:00:00
UTC Time2018-05-21 20:25:49
Flight Rules vfr VFR
WindVRB at 01 kt
Visibility9999 m
Phenomena:N/A
Clouds:N/A
Expected CloudBase > 2,000 ft AGL from Temp-Dew spread
CeilingNone
Temp13°C (ISA -2)
Dew Point08°C (72% RH)
AAT12.2°C
QNH1017 hPa
Density Alt-190 ft
Elevation30 ft
Report Wrong Elevation
Raw Report
METAR RJOH 212000Z VRB01KT 9999 SCT/// 13/08 Q1017=

Extra information for RJOH:More info

Metar Taf Metar & Taf Last 4 Metars F.Rules Stats Wind Profile Meteogram Temp Stats Airport Information Weather charts Add Link Nearby VenuesMetar ALERT Operation Metar Decoded Social comments